Time;durP1;ratioP1;P1;durP2;ratioP2;P2;SDS_P1;SDS_P2;PMS_P1;PMS_P2;Temp;Humidity;BMP_temperature;BMP_pressure;BME280_temperature;BME280_humidity;BME280_pressure;Samples;Min_cycle;Max_cycle;Signal;HPM_P1;HPM_P2
2023/04/06 00:00:46;;;;;;;60.15;25.37;;;;;;;9.75;100.00;99282.92;1655804;83;21216;-85
2023/04/06 00:03:53;;;;;;;52.50;23.40;;;;;;;9.54;100.00;99285.64;1662323;84;21281;-85
2023/04/06 00:07:00;;;;;;;58.35;23.83;;;;;;;9.53;100.00;99288.06;1657186;84;21260;-85
2023/04/06 00:10:06;;;;;;;46.53;24.10;;;;;;;9.52;100.00;99285.01;1665887;83;21263;-86
2023/04/06 00:13:11;;;;;;;33.05;20.70;;;;;;;9.44;100.00;99285.45;1655628;83;21224;-86
2023/04/06 00:16:17;;;;;;;49.42;22.75;;;;;;;9.42;100.00;99288.90;1659890;84;21232;-85
2023/04/06 00:19:26;;;;;;;40.00;22.30;;;;;;;9.36;100.00;99282.86;1660510;83;21278;-85
2023/04/06 00:22:31;;;;;;;41.90;22.25;;;;;;;9.35;100.00;99292.06;1664170;83;21241;-84
2023/04/06 00:25:38;;;;;;;38.28;22.15;;;;;;;9.44;100.00;99289.53;1658393;83;21320;-85
2023/04/06 00:28:44;;;;;;;38.88;22.20;;;;;;;9.44;100.00;99290.91;1658895;83;21293;-85
2023/04/06 00:31:51;;;;;;;59.83;21.42;;;;;;;9.41;100.00;99290.44;1665647;84;21779;-85
2023/04/06 00:34:57;;;;;;;41.18;21.40;;;;;;;9.45;100.00;99292.59;1653547;84;21313;-85
2023/04/06 00:38:04;;;;;;;31.10;20.05;;;;;;;9.42;100.00;99284.80;1661349;82;21536;-85
2023/04/06 00:41:10;;;;;;;46.40;19.30;;;;;;;9.40;100.00;99290.12;1622644;83;21230;-85
2023/04/06 00:44:16;;;;;;;30.25;18.60;;;;;;;9.36;100.00;99283.35;1661813;84;21279;-85
2023/04/06 00:47:25;;;;;;;49.83;20.60;;;;;;;9.34;100.00;99284.92;1665515;83;21291;-85
2023/04/06 00:50:31;;;;;;;31.55;20.27;;;;;;;9.23;100.00;99284.08;1661839;83;21844;-85
2023/04/06 00:56:02;;;;;;;52.75;19.92;;;;;;;9.26;100.00;99286.92;1670401;82;21813;-85
2023/04/06 01:01:37;;;;;;;87.88;23.05;;;;;;;9.23;100.00;99288.16;1676589;85;21270;-85
2023/04/06 01:05:00;;;;;;;46.53;21.12;;;;;;;9.26;100.00;99286.39;1667801;83;21846;-85
2023/04/06 01:08:14;;;;;;;49.42;21.37;;;;;;;9.28;100.00;99289.80;1665275;84;21236;-84
2023/04/06 01:11:12;;;;;;;45.25;20.60;;;;;;;9.29;100.00;99287.91;1653274;83;21549;-84
2023/04/06 01:14:19;;;;;;;36.05;20.85;;;;;;;9.16;100.00;99280.41;1663162;82;21211;-85
2023/04/06 01:17:25;;;;;;;40.30;20.50;;;;;;;9.10;100.00;99283.39;1651251;84;21231;-85
2023/04/06 01:22:51;;;;;;;33.28;19.50;;;;;;;9.24;100.00;99286.28;1663479;84;21258;-85
2023/04/06 01:25:58;;;;;;;42.58;21.57;;;;;;;9.23;100.00;99284.59;1660318;84;21243;-85
2023/04/06 01:31:32;;;;;;;86.08;22.22;;;;;;;9.27;100.00;99290.84;1664161;84;21282;-85
2023/04/06 01:37:06;;;;;;;41.90;20.88;;;;;;;9.26;100.00;99289.12;1661908;84;21345;-85
2023/04/06 01:40:13;;;;;;;43.38;18.73;;;;;;;9.20;100.00;99292.63;1660712;83;21304;-85
2023/04/06 01:43:20;;;;;;;35.28;21.60;;;;;;;9.19;100.00;99289.06;1653335;83;21272;-85
2023/04/06 01:46:27;;;;;;;40.08;21.33;;;;;;;9.16;100.00;99289.95;1660797;82;21247;-85
2023/04/06 01:49:33;;;;;;;39.18;21.90;;;;;;;9.19;100.00;99282.77;1661854;83;21258;-85
2023/04/06 01:52:41;;;;;;;47.15;21.30;;;;;;;9.19;100.00;99287.70;1654055;84;21951;-85
2023/04/06 01:55:47;;;;;;;53.83;22.50;;;;;;;9.23;100.00;99290.89;1637676;85;21261;-85
2023/04/06 01:58:55;;;;;;;32.38;19.95;;;;;;;9.25;100.00;99289.33;1643024;84;21250;-85
2023/04/06 02:02:03;;;;;;;48.68;19.70;;;;;;;9.25;100.00;99291.53;1664670;83;21260;-85
2023/04/06 02:05:10;;;;;;;54.83;19.77;;;;;;;9.15;100.00;99289.11;1623820;86;21290;-85
2023/04/06 02:08:16;;;;;;;45.30;20.52;;;;;;;9.10;100.00;99288.00;1588512;86;21236;-85
2023/04/06 02:11:23;;;;;;;29.12;19.80;;;;;;;9.08;100.00;99296.88;1612517;86;21240;-85
2023/04/06 02:14:30;;;;;;;39.30;20.48;;;;;;;9.05;100.00;99297.28;1665219;83;21542;-85
2023/04/06 02:17:37;;;;;;;36.00;21.48;;;;;;;9.16;100.00;99297.62;1649892;85;21259;-85
2023/04/06 02:20:42;;;;;;;54.67;21.68;;;;;;;9.11;100.00;99300.59;1665812;84;21354;-85
2023/04/06 02:23:49;;;;;;;31.25;20.72;;;;;;;9.04;100.00;99301.05;1659657;83;21243;-85
2023/04/06 02:26:54;;;;;;;33.30;20.27;;;;;;;9.11;100.00;99308.78;1660827;84;21173;-85
2023/04/06 02:30:01;;;;;;;41.85;22.67;;;;;;;9.00;100.00;99309.29;1660491;83;21406;-84
2023/04/06 02:33:09;;;;;;;50.73;22.52;;;;;;;9.46;100.00;99317.50;1662868;83;21271;-84
2023/04/06 02:36:16;;;;;;;38.40;21.17;;;;;;;9.06;100.00;99319.42;1657410;83;21255;-84
2023/04/06 02:39:22;;;;;;;51.65;22.77;;;;;;;8.96;100.00;99322.45;1658217;83;21339;-85
2023/04/06 02:42:30;;;;;;;31.80;20.12;;;;;;;8.89;100.00;99325.10;1659058;83;21275;-85
2023/04/06 02:45:36;;;;;;;48.85;23.25;;;;;;;8.91;100.00;99328.47;1660294;84;21319;-85
2023/04/06 02:51:14;;;;;;;46.08;22.02;;;;;;;9.00;100.00;99336.56;1673320;84;21155;-84
2023/04/06 02:56:48;;;;;;;37.65;21.90;;;;;;;8.85;100.00;99340.67;1614329;86;21315;-86
2023/04/06 02:59:56;;;;;;;42.88;21.50;;;;;;;9.11;100.00;99345.61;1605315;86;21980;-85
2023/04/06 03:03:04;;;;;;;44.03;21.95;;;;;;;8.82;100.00;99350.06;1645822;83;21267;-86
2023/04/06 03:06:11;;;;;;;45.95;22.27;;;;;;;8.79;100.00;99347.70;1645227;85;21198;-85
2023/04/06 03:09:09;;;;;;;47.53;21.50;;;;;;;8.82;100.00;99348.70;1653478;85;21141;-85
2023/04/06 03:12:14;;;;;;;40.55;20.48;;;;;;;8.83;100.00;99354.47;1644561;85;21783;-85
2023/04/06 03:15:35;;;;;;;38.20;20.75;;;;;;;8.78;100.00;99358.28;1600786;86;21293;-85
2023/04/06 03:18:44;;;;;;;36.63;20.25;;;;;;;8.83;100.00;99361.28;1598854;87;21554;-85
2023/04/06 03:21:50;;;;;;;37.35;19.60;;;;;;;8.84;100.00;99365.70;1598051;86;21299;-85
2023/04/06 03:24:55;;;;;;;36.17;19.62;;;;;;;8.91;100.00;99365.81;1602288;86;21333;-85
2023/04/06 03:28:03;;;;;;;32.80;18.42;;;;;;;9.04;100.00;99370.09;1656749;84;21233;-85
2023/04/06 03:31:20;;;;;;;30.72;16.95;;;;;;;9.38;100.00;99368.11;1650536;84;21754;-85
2023/04/06 03:34:31;;;;;;;33.98;19.10;;;;;;;9.38;100.00;99373.56;1606985;86;21295;-85
2023/04/06 03:37:37;;;;;;;32.38;17.80;;;;;;;9.36;100.00;99374.29;1658400;83;21189;-85
2023/04/06 03:40:42;;;;;;;35.60;19.42;;;;;;;9.29;100.00;99380.17;1667737;84;21219;-85
2023/04/06 03:43:51;;;;;;;31.48;18.57;;;;;;;9.38;100.00;99383.64;1676317;82;21259;-85
2023/04/06 03:46:57;;;;;;;40.40;20.43;;;;;;;9.31;100.00;99386.78;1673345;83;21855;-84
2023/04/06 03:52:32;;;;;;;47.10;26.07;;;;;;;9.61;100.00;99392.53;1649686;85;21849;-85
2023/04/06 03:55:38;;;;;;;60.35;32.03;;;;;;;9.39;100.00;99388.89;1652752;84;21465;-84
2023/04/06 04:01:12;;;;;;;48.90;30.02;;;;;;;9.53;100.00;99391.79;1650862;86;21264;-84
2023/04/06 04:04:19;;;;;;;67.72;33.23;;;;;;;9.36;100.00;99393.39;1649121;85;21257;-84
2023/04/06 04:07:25;;;;;;;60.83;32.17;;;;;;;9.31;100.00;99393.09;1653142;85;21207;-84
2023/04/06 04:13:01;;;;;;;78.95;36.95;;;;;;;9.60;100.00;99405.02;1652182;85;21277;-84
2023/04/06 04:16:09;;;;;;;105.55;44.98;;;;;;;9.58;100.00;99405.71;1607132;86;21256;-84
2023/04/06 04:19:16;;;;;;;97.25;43.78;;;;;;;9.45;100.00;99405.02;1651203;84;21759;-84
2023/04/06 04:24:48;;;;;;;54.05;30.97;;;;;;;9.40;100.00;99415.14;1668942;84;21270;-85
2023/04/06 04:30:22;;;;;;;43.83;24.57;;;;;;;9.61;100.00;99410.27;1663908;83;21274;-85
2023/04/06 04:35:55;;;;;;;28.02;18.82;;;;;;;9.44;100.00;99416.45;1607586;87;21291;-85
2023/04/06 04:41:29;;;;;;;31.68;17.65;;;;;;;9.42;100.00;99414.45;1645798;85;21263;-84
2023/04/06 04:44:36;;;;;;;27.13;17.07;;;;;;;9.33;100.00;99416.95;1612868;85;21271;-85
2023/04/06 04:50:11;;;;;;;27.95;17.23;;;;;;;9.36;100.00;99424.78;1641971;85;21312;-85
2023/04/06 04:53:19;;;;;;;26.42;16.77;;;;;;;9.52;100.00;99429.17;1663347;83;21219;-85
2023/04/06 04:56:28;;;;;;;25.80;16.42;;;;;;;9.42;100.00;99429.98;1659754;83;21204;-85
2023/04/06 04:59:42;;;;;;;27.07;17.27;;;;;;;9.33;100.00;99434.70;1661322;83;21243;-85
2023/04/06 05:02:49;;;;;;;25.20;16.30;;;;;;;9.30;100.00;99433.70;1608873;86;21301;-85
2023/04/06 05:05:57;;;;;;;30.25;17.40;;;;;;;9.50;100.00;99433.95;1629293;85;21245;-84
2023/04/06 05:09:03;;;;;;;26.90;16.55;;;;;;;9.50;100.00;99443.51;1655073;84;21260;-85
2023/04/06 05:12:10;;;;;;;31.20;18.23;;;;;;;9.45;100.00;99441.34;1679854;83;21827;-84
2023/04/06 05:15:18;;;;;;;30.10;17.82;;;;;;;9.39;100.00;99453.56;1617858;83;21271;-85
2023/04/06 05:18:26;;;;;;;32.38;18.02;;;;;;;9.42;100.00;99455.92;1668022;83;21211;-85
2023/04/06 05:23:58;;;;;;;33.50;18.05;;;;;;;9.46;100.00;99448.53;1648837;84;21359;-84
2023/04/06 05:27:04;;;;;;;33.25;18.65;;;;;;;9.42;100.00;99454.55;1669407;83;21204;-85
2023/04/06 05:32:37;;;;;;;47.10;23.35;;;;;;;9.61;100.00;99446.30;1650566;83;21302;-85
2023/04/06 05:38:10;;;;;;;46.05;22.42;;;;;;;9.56;100.00;99452.84;1655718;82;21338;-85
2023/04/06 05:43:45;;;;;;;63.10;31.97;;;;;;;9.70;100.00;99456.07;1666812;83;21285;-85
2023/04/06 05:46:51;;;;;;;86.02;42.00;;;;;;;9.73;100.00;99452.41;1654210;83;21287;-85
2023/04/06 05:49:53;;;;;;;102.35;49.08;;;;;;;9.68;100.00;99458.97;1657966;84;21527;-86
2023/04/06 05:55:27;;;;;;;98.80;47.80;;;;;;;9.78;100.00;99451.84;1611183;85;21322;-85
2023/04/06 06:01:09;;;;;;;90.42;43.63;;;;;;;9.71;100.00;99463.22;1618492;86;21363;-85
2023/04/06 06:04:17;;;;;;;80.15;39.85;;;;;;;9.84;100.00;99465.27;1608071;86;21248;-85
2023/04/06 06:07:23;;;;;;;89.17;44.33;;;;;;;9.84;100.00;99474.30;1617712;83;21280;-86
2023/04/06 06:10:29;;;;;;;99.00;48.17;;;;;;;10.03;100.00;99468.74;1640978;83;21253;-85
2023/04/06 06:13:37;;;;;;;73.30;38.00;;;;;;;10.00;100.00;99467.75;1622983;85;21231;-85
2023/04/06 06:16:42;;;;;;;58.98;31.35;;;;;;;9.97;100.00;99474.47;1585579;85;21852;-85
2023/04/06 06:19:49;;;;;;;63.55;30.90;;;;;;;9.83;100.00;99465.76;1601490;87;21339;-85
2023/04/06 06:22:55;;;;;;;68.02;35.15;;;;;;;9.95;100.00;99471.06;1640591;84;21255;-84
2023/04/06 06:26:01;;;;;;;69.45;34.50;;;;;;;10.04;100.00;99480.52;1642389;84;21262;-85
2023/04/06 06:29:07;;;;;;;58.83;32.23;;;;;;;10.16;100.00;99477.58;1652232;83;21255;-85
2023/04/06 06:32:13;;;;;;;66.82;38.42;;;;;;;10.32;100.00;99474.64;1658047;84;21235;-85
2023/04/06 06:35:20;;;;;;;94.05;48.10;;;;;;;10.33;100.00;99479.06;1656806;84;21213;-85
2023/04/06 06:38:28;;;;;;;96.42;52.70;;;;;;;10.32;100.00;99476.02;1604489;86;21295;-85
2023/04/06 06:41:35;;;;;;;104.07;52.78;;;;;;;10.31;100.00;99479.80;1606796;86;21275;-85
2023/04/06 06:44:42;;;;;;;84.92;42.40;;;;;;;10.40;100.00;99481.36;1602596;86;21259;-84
2023/04/06 06:47:48;;;;;;;57.35;29.80;;;;;;;10.23;100.00;99490.29;1607712;84;21344;-85
2023/04/06 06:50:56;;;;;;;35.00;21.07;;;;;;;9.86;100.00;99486.39;1651033;85;21223;-85
2023/04/06 06:54:04;;;;;;;32.03;19.30;;;;;;;9.82;100.00;99495.48;1650621;84;21241;-85
2023/04/06 06:57:10;;;;;;;29.60;17.85;;;;;;;9.97;100.00;99493.59;1643710;84;21211;-85
2023/04/06 07:00:20;;;;;;;26.30;16.32;;;;;;;10.09;100.00;99492.55;1605936;85;21241;-85
2023/04/06 07:03:26;;;;;;;31.17;17.57;;;;;;;10.09;100.00;99501.27;1654571;84;21345;-85
2023/04/06 07:06:31;;;;;;;26.35;15.90;;;;;;;10.05;100.00;99509.52;1653466;83;21270;-85
2023/04/06 07:09:37;;;;;;;25.75;16.10;;;;;;;10.12;100.00;99509.09;1636339;84;21280;-85
2023/04/06 07:12:46;;;;;;;30.30;18.27;;;;;;;10.26;100.00;99509.60;1607201;86;22009;-84
2023/04/06 07:15:51;;;;;;;15.58;9.90;;;;;;;10.26;100.00;99520.53;1649070;84;21304;-84
2023/04/06 07:18:57;;;;;;;8.25;4.85;;;;;;;10.35;100.00;99527.58;1646377;83;21227;-84
2023/04/06 07:22:05;;;;;;;7.25;3.55;;;;;;;10.31;100.00;99529.52;1634387;84;21213;-84
2023/04/06 07:25:11;;;;;;;5.80;3.22;;;;;;;10.38;100.00;99535.89;1662778;83;21318;-84
2023/04/06 07:28:17;;;;;;;6.00;3.00;;;;;;;10.37;100.00;99537.78;1640515;83;21240;-85
2023/04/06 07:31:25;;;;;;;3.95;2.65;;;;;;;10.13;100.00;99543.05;1658365;83;21264;-85
2023/04/06 07:34:32;;;;;;;3.85;2.30;;;;;;;10.07;100.00;99554.76;1615027;86;21306;-85
2023/04/06 07:37:38;;;;;;;2.60;1.90;;;;;;;9.97;100.00;99555.55;1604828;85;21276;-85
2023/04/06 07:40:47;;;;;;;1.00;0.80;;;;;;;10.10;100.00;99558.45;1637416;83;21233;-84
2023/04/06 07:43:52;;;;;;;1.65;1.10;;;;;;;10.12;100.00;99564.59;1634716;85;21561;-84
2023/04/06 07:46:58;;;;;;;4.87;1.10;;;;;;;10.12;100.00;99570.06;1629376;84;21306;-84
2023/04/06 07:50:04;;;;;;;3.47;0.60;;;;;;;10.03;100.00;99577.19;1648028;84;21296;-83
2023/04/06 07:53:10;;;;;;;0.53;0.50;;;;;;;9.94;100.00;99584.11;1646463;84;21256;-84
2023/04/06 07:56:15;;;;;;;1.47;0.60;;;;;;;9.73;100.00;99581.28;1646405;84;21276;-84
2023/04/06 07:59:21;;;;;;;0.62;0.60;;;;;;;9.96;100.00;99583.91;1639215;85;21216;-84
2023/04/06 08:02:28;;;;;;;1.55;0.60;;;;;;;10.14;100.00;99583.00;1631536;85;21250;-84
2023/04/06 08:05:35;;;;;;;1.02;0.55;;;;;;;9.85;100.00;99580.30;1647234;85;21224;-84
2023/04/06 08:08:41;;;;;;;1.45;0.75;;;;;;;9.99;100.00;99583.02;1611019;84;21888;-84
2023/04/06 08:11:48;;;;;;;1.00;0.55;;;;;;;10.17;100.00;99579.05;1632455;84;21201;-84
2023/04/06 08:14:55;;;;;;;1.02;0.50;;;;;;;10.39;100.00;99579.42;1644638;83;21497;-84
2023/04/06 08:18:00;;;;;;;1.35;0.60;;;;;;;10.42;100.00;99581.78;1648721;84;22213;-84
2023/04/06 08:21:07;;;;;;;2.02;0.57;;;;;;;10.20;100.00;99588.20;1590642;85;21320;-84
2023/04/06 08:24:13;;;;;;;1.00;0.50;;;;;;;10.22;100.00;99592.98;1649068;83;21795;-84
2023/04/06 08:27:19;;;;;;;1.65;0.50;;;;;;;10.30;100.00;99595.61;1606636;85;21247;-84
2023/04/06 08:30:25;;;;;;;0.65;0.40;;;;;;;10.33;100.00;99595.77;1600606;86;21275;-85
2023/04/06 08:33:31;;;;;;;0.30;0.30;;;;;;;10.26;100.00;99601.16;1648410;84;21369;-84
2023/04/06 08:36:37;;;;;;;0.45;0.42;;;;;;;10.32;100.00;99607.22;1646538;84;21248;-85
2023/04/06 08:39:43;;;;;;;2.05;0.62;;;;;;;10.28;100.00;99614.11;1618493;86;21289;-84
2023/04/06 08:42:52;;;;;;;0.82;0.50;;;;;;;10.37;100.00;99608.86;1606279;86;21279;-84
2023/04/06 08:45:58;;;;;;;0.50;0.50;;;;;;;10.23;100.00;99612.44;1647111;84;21875;-84
2023/04/06 08:49:08;;;;;;;1.50;0.80;;;;;;;10.17;100.00;99620.04;1653116;84;21315;-84
2023/04/06 08:52:17;;;;;;;2.87;0.80;;;;;;;10.09;100.00;99617.41;1660027;83;21225;-84
2023/04/06 08:57:49;;;;;;;1.87;0.80;;;;;;;9.87;100.00;99637.80;1655568;84;21298;-84
2023/04/06 09:00:54;;;;;;;2.80;0.90;;;;;;;9.80;100.00;99628.67;1628442;85;21259;-84
2023/04/06 09:04:09;;;;;;;1.77;1.02;;;;;;;9.74;100.00;99640.36;1633318;84;21259;-85
2023/04/06 09:07:15;;;;;;;2.00;0.90;;;;;;;9.77;100.00;99639.11;1658024;84;21378;-84
2023/04/06 09:10:23;;;;;;;2.47;0.88;;;;;;;9.75;100.00;99643.41;1649283;84;21271;-85
2023/04/06 09:13:31;;;;;;;1.07;0.75;;;;;;;9.65;100.00;99653.77;1646541;83;21757;-84
2023/04/06 09:16:38;;;;;;;1.90;0.80;;;;;;;9.62;100.00;99656.85;1634827;83;21237;-85
2023/04/06 09:19:55;;;;;;;2.15;0.80;;;;;;;9.67;100.00;99659.88;1582426;86;21347;-85
2023/04/06 09:23:02;;;;;;;2.35;1.02;;;;;;;9.66;100.00;99665.01;1611293;85;21394;-85
2023/04/06 09:26:24;;;;;;;1.25;0.50;;;;;;;9.71;100.00;99670.76;1655364;84;21353;-85
2023/04/06 09:29:34;;;;;;;1.30;0.50;;;;;;;9.71;100.00;99675.70;1648076;84;22220;-84
2023/04/06 09:32:43;;;;;;;1.07;0.40;;;;;;;9.76;100.00;99680.60;1647485;82;21256;-84
2023/04/06 09:35:48;;;;;;;3.08;0.85;;;;;;;9.61;100.00;99681.10;1655962;83;21264;-85
2023/04/06 09:39:10;;;;;;;0.85;0.57;;;;;;;9.71;100.00;99684.41;1615140;84;21235;-85
2023/04/06 09:42:15;;;;;;;1.70;0.60;;;;;;;9.73;100.00;99680.97;1642184;84;21256;-84
2023/04/06 09:45:22;;;;;;;1.95;0.70;;;;;;;9.78;100.00;99688.08;1657872;83;22237;-84
2023/04/06 09:48:29;;;;;;;3.47;1.12;;;;;;;10.06;100.00;99684.72;1617519;85;21260;-84
2023/04/06 09:51:38;;;;;;;1.22;0.70;;;;;;;10.08;100.00;99687.60;1623244;85;21308;-85
2023/04/06 09:54:44;;;;;;;1.67;0.70;;;;;;;9.83;100.00;99696.56;1641353;85;21560;-84
2023/04/06 09:58:06;;;;;;;0.57;0.40;;;;;;;9.89;100.00;99698.56;1655875;83;21364;-84
2023/04/06 10:01:17;;;;;;;1.92;0.60;;;;;;;9.70;100.00;99700.47;1667054;83;21204;-84
2023/04/06 10:05:01;;;;;;;3.90;0.75;;;;;;;9.78;100.00;99705.83;1652958;82;21288;-84
2023/04/06 10:08:08;;;;;;;1.47;0.60;;;;;;;9.64;100.00;99710.75;1641097;84;21383;-84
2023/04/06 10:11:18;;;;;;;0.88;0.70;;;;;;;9.77;100.00;99715.59;1650893;84;21261;-84
2023/04/06 10:14:24;;;;;;;4.75;0.95;;;;;;;9.77;100.00;99719.69;1633634;84;21252;-85
2023/04/06 10:17:31;;;;;;;2.87;0.70;;;;;;;9.75;100.00;99730.80;1643349;83;21225;-84
2023/04/06 10:20:43;;;;;;;2.70;1.00;;;;;;;9.81;100.00;99727.84;1627983;84;21237;-85
2023/04/06 10:23:55;;;;;;;1.42;0.70;;;;;;;9.81;100.00;99727.32;1612209;86;22258;-85
2023/04/06 10:27:11;;;;;;;3.98;1.10;;;;;;;9.79;100.00;99730.77;1649177;83;21220;-84
2023/04/06 10:30:17;;;;;;;5.97;1.32;;;;;;;9.86;100.00;99734.96;1651172;83;21220;-84
2023/04/06 10:33:26;;;;;;;5.05;1.80;;;;;;;10.03;100.00;99739.23;1653277;84;21284;-85
2023/04/06 10:36:40;;;;;;;4.87;1.37;;;;;;;10.19;100.00;99738.20;1648871;84;21243;-85
2023/04/06 10:40:03;;;;;;;6.92;2.08;;;;;;;10.11;100.00;99743.23;1588954;87;21239;-85
2023/04/06 10:43:28;;;;;;;6.50;1.70;;;;;;;10.10;100.00;99750.25;1618085;86;21296;-85
2023/04/06 10:46:36;;;;;;;5.83;2.00;;;;;;;10.17;100.00;99752.06;1609810;86;21294;-84
2023/04/06 10:49:42;;;;;;;5.92;2.30;;;;;;;10.17;100.00;99757.53;1655260;83;21392;-84
2023/04/06 10:52:50;;;;;;;8.15;2.22;;;;;;;10.29;100.00;99757.94;1644260;84;21263;-84
2023/04/06 10:56:02;;;;;;;13.38;3.25;;;;;;;10.18;100.00;99757.01;1647276;84;21263;-85
2023/04/06 10:59:10;;;;;;;5.40;2.25;;;;;;;10.11;100.00;99760.14;1637351;84;21256;-85
2023/04/06 11:02:16;;;;;;;4.50;1.77;;;;;;;10.25;100.00;99759.34;1631637;84;21666;-85
2023/04/06 11:05:24;;;;;;;2.27;1.40;;;;;;;10.27;100.00;99758.65;1643896;84;21311;-85
2023/04/06 11:08:39;;;;;;;3.33;1.75;;;;;;;10.54;100.00;99750.80;1660562;84;21953;-85
2023/04/06 11:11:46;;;;;;;6.17;2.08;;;;;;;10.65;99.64;99759.91;1642085;84;21208;-85
2023/04/06 11:15:06;;;;;;;2.08;1.60;;;;;;;10.72;99.31;99762.20;1604819;86;21239;-84
2023/04/06 11:18:14;;;;;;;6.12;1.62;;;;;;;10.59;99.46;99758.80;1609707;86;21245;-84
2023/04/06 11:21:21;;;;;;;1.85;1.37;;;;;;;10.66;97.16;99761.61;1644892;84;21275;-85
2023/04/06 11:24:33;;;;;;;5.55;1.52;;;;;;;10.68;95.45;99767.23;1663126;83;21299;-85
2023/04/06 11:27:39;;;;;;;3.62;2.08;;;;;;;10.64;95.64;99779.58;1661967;83;21178;-84
2023/04/06 11:33:11;;;;;;;5.37;1.90;;;;;;;10.51;96.32;99771.71;1653032;83;21871;-84
2023/04/06 11:36:16;;;;;;;5.60;2.72;;;;;;;10.64;96.76;99773.27;1630336;85;21248;-84
2023/04/06 11:39:24;;;;;;;5.33;2.15;;;;;;;10.71;96.60;99777.77;1645736;84;21239;-84
2023/04/06 11:47:18;;;;;;;5.92;2.17;;;;;;;10.99;93.02;99786.13;1629961;85;21767;-85
2023/04/06 11:50:26;;;;;;;6.80;2.30;;;;;;;11.07;92.38;99787.91;1630322;84;21619;-84
2023/04/06 11:55:59;;;;;;;6.58;2.08;;;;;;;11.14;91.11;99797.03;1594361;86;21409;-85
2023/04/06 11:59:06;;;;;;;4.10;1.90;;;;;;;11.17;89.58;99793.08;1589073;87;21309;-85
2023/04/06 12:04:39;;;;;;;3.02;1.80;;;;;;;10.98;88.61;99784.44;1616343;86;21262;-86
2023/04/06 12:10:14;;;;;;;6.92;1.72;;;;;;;10.76;87.98;99790.88;1645251;83;21309;-86
2023/04/06 12:13:19;;;;;;;5.95;1.60;;;;;;;10.66;88.47;99794.42;1626115;83;22240;-85
2023/04/06 12:18:50;;;;;;;4.83;1.70;;;;;;;10.72;89.01;99797.23;1652426;84;21267;-85
2023/04/06 12:21:57;;;;;;;4.60;1.70;;;;;;;10.90;88.94;99798.73;1641331;85;21235;-84
2023/04/06 12:25:02;;;;;;;6.25;2.02;;;;;;;10.90;88.14;99805.06;1626947;85;21673;-84
2023/04/06 12:28:11;;;;;;;3.50;1.70;;;;;;;10.85;87.73;99795.73;1660146;82;21227;-85
2023/04/06 12:31:25;;;;;;;7.12;1.62;;;;;;;10.82;87.52;99808.41;1633623;82;21598;-85
2023/04/06 12:33:54;;;;;;;4.92;1.70;;;;;;;10.82;86.84;99809.78;1607585;86;21482;-85
2023/04/06 12:37:00;;;;;;;4.20;1.40;;;;;;;10.84;86.15;99814.03;1643111;84;21821;-85
2023/04/06 12:40:10;;;;;;;3.87;1.57;;;;;;;10.80;86.19;99810.50;1629060;84;21208;-85
2023/04/06 12:43:15;;;;;;;3.83;1.70;;;;;;;10.66;86.24;99814.94;1641114;83;22595;-85
2023/04/06 12:46:22;;;;;;;3.45;1.50;;;;;;;10.64;86.18;99826.60;1589783;87;21263;-85
2023/04/06 12:49:27;;;;;;;3.75;1.50;;;;;;;10.57;85.88;99820.17;1647979;84;21285;-85
2023/04/06 12:52:35;;;;;;;4.92;1.65;;;;;;;10.59;84.77;99824.95;1632752;85;21220;-85
2023/04/06 12:55:40;;;;;;;3.37;1.30;;;;;;;10.47;84.83;99829.50;1628080;84;21314;-85
2023/04/06 12:58:45;;;;;;;2.47;1.65;;;;;;;10.35;85.40;99829.64;1652533;84;21776;-84
2023/04/06 13:01:52;;;;;;;4.30;1.92;;;;;;;10.33;85.33;99834.44;1636470;84;21244;-85
2023/04/06 13:05:21;;;;;;;4.05;1.50;;;;;;;10.22;86.03;99837.59;1633947;83;21640;-85
2023/04/06 13:08:29;;;;;;;7.72;1.95;;;;;;;10.10;87.09;99837.70;1681580;81;21862;-85
2023/04/06 13:11:35;;;;;;;7.83;2.02;;;;;;;10.02;87.74;99840.50;1676071;83;21841;-85
2023/04/06 13:14:41;;;;;;;4.25;1.67;;;;;;;9.99;87.63;99843.09;1662798;84;21829;-85
2023/04/06 13:17:47;;;;;;;4.60;1.92;;;;;;;10.04;86.91;99850.74;1668639;84;21856;-85
2023/04/06 13:20:55;;;;;;;4.40;2.22;;;;;;;9.96;86.67;99855.23;1672994;84;21548;-85
2023/04/06 13:24:02;;;;;;;4.33;2.02;;;;;;;9.94;87.13;99855.09;1654775;86;21231;-85
2023/04/06 13:27:08;;;;;;;6.37;2.00;;;;;;;9.90;87.55;99854.61;1680290;84;21252;-85
2023/04/06 13:30:17;;;;;;;9.10;2.52;;;;;;;9.72;88.63;99862.25;1655872;85;21239;-85
2023/04/06 13:33:24;;;;;;;7.80;2.22;;;;;;;9.77;89.08;99863.07;1658825;85;21250;-85
2023/04/06 13:36:32;;;;;;;9.40;2.55;;;;;;;9.69;89.86;99869.43;1660060;85;21237;-84
2023/04/06 13:39:39;;;;;;;10.18;2.62;;;;;;;9.66;89.78;99863.83;1657922;84;21326;-84
2023/04/06 13:42:46;;;;;;;9.38;3.05;;;;;;;9.61;89.66;99869.52;1667570;84;21229;-84
2023/04/06 13:46:00;;;;;;;4.78;2.58;;;;;;;9.58;89.71;99861.67;1666221;84;21796;-84
2023/04/06 13:49:07;;;;;;;4.72;2.20;;;;;;;9.59;89.52;99874.28;1663803;85;21255;-84
2023/04/06 13:52:13;;;;;;;9.25;2.70;;;;;;;9.58;89.86;99872.07;1676755;85;21264;-84
2023/04/06 13:55:19;;;;;;;5.20;2.80;;;;;;;9.52;89.92;99867.34;1680130;85;21775;-84
2023/04/06 13:58:26;;;;;;;7.22;3.35;;;;;;;9.33;90.63;99871.89;1680372;84;21802;-84
2023/04/06 14:01:32;;;;;;;8.15;4.45;;;;;;;9.11;91.25;99866.70;1678747;85;21291;-85
2023/04/06 14:04:40;;;;;;;6.55;3.10;;;;;;;8.94;92.56;99865.95;1678864;82;21785;-85
2023/04/06 14:07:45;;;;;;;12.13;2.67;;;;;;;8.94;93.18;99872.77;1679792;85;21251;-85
2023/04/06 14:10:52;;;;;;;9.23;2.30;;;;;;;8.80;92.79;99879.80;1676959;85;21267;-85
2023/04/06 14:13:58;;;;;;;7.97;2.75;;;;;;;8.72;92.75;99877.09;1679939;84;21219;-85
2023/04/06 14:17:04;;;;;;;6.08;2.22;;;;;;;8.75;92.84;99883.56;1657288;85;21242;-85
2023/04/06 14:20:13;;;;;;;7.78;1.77;;;;;;;8.80;92.31;99890.70;1669027;84;21765;-84
2023/04/06 14:28:14;;;;;;;4.53;2.27;;;;;;;8.90;90.67;99895.96;1663714;85;21284;-84
2023/04/06 14:33:47;;;;;;;8.08;2.02;;;;;;;8.73;90.49;99901.96;1663493;85;21307;-85
2023/04/06 14:36:54;;;;;;;8.30;2.10;;;;;;;8.58;90.61;99905.92;1662768;85;21338;-84
2023/04/06 14:42:27;;;;;;;11.85;5.85;;;;;;;8.57;90.44;99901.50;1662669;85;21939;-84
2023/04/06 14:45:32;;;;;;;5.92;4.08;;;;;;;8.61;90.19;99910.16;1658875;85;21298;-85
2023/04/06 14:48:40;;;;;;;7.10;4.10;;;;;;;8.72;89.65;99907.08;1656967;85;21242;-84
2023/04/06 14:54:15;;;;;;;3.92;1.98;;;;;;;8.58;89.49;99912.73;1658691;84;21282;-84
2023/04/06 14:57:21;;;;;;;4.72;2.55;;;;;;;8.56;89.53;99916.64;1669528;83;21347;-84
2023/04/06 15:00:28;;;;;;;6.37;3.50;;;;;;;8.77;89.01;99907.92;1667144;83;21281;-84
2023/04/06 15:03:16;;;;;;;;;;;;;;;8.91;88.40;99906.69;1667531;85;21270;-84
2023/04/06 15:06:23;;;;;;;10.08;3.80;;;;;;;9.09;87.35;99911.06;1654215;85;20244;-84
2023/04/06 15:11:55;;;;;;;8.25;3.40;;;;;;;8.61;88.72;99925.15;1704247;83;21353;-85
2023/04/06 15:17:29;;;;;;;8.88;3.95;;;;;;;8.72;88.29;99932.14;1703773;84;21541;-84
2023/04/06 15:20:37;;;;;;;8.55;4.12;;;;;;;8.65;88.66;99930.60;1693340;83;21227;-84
2023/04/06 15:23:44;;;;;;;8.63;5.03;;;;;;;8.67;88.62;99928.05;1676262;84;21847;-85
2023/04/06 15:26:50;;;;;;;17.67;8.83;;;;;;;8.65;88.52;99930.08;1658547;83;21153;-85
2023/04/06 15:29:58;;;;;;;12.63;4.95;;;;;;;8.70;88.10;99941.35;1668437;84;21260;-85
2023/04/06 15:32:32;;;;;;;11.43;4.50;;;;;;;8.64;88.89;99948.84;1667171;84;21776;-85
2023/04/06 15:35:42;;;;;;;14.25;8.95;;;;;;;8.58;89.58;99935.91;1660583;84;21810;-85
2023/04/06 15:38:46;;;;;;;14.28;8.23;;;;;;;8.73;89.35;99940.66;1663785;82;21244;-85
2023/04/06 15:46:52;;;;;;;10.78;7.42;;;;;;;8.56;89.37;99936.60;1635185;85;21260;-85
2023/04/06 15:49:58;;;;;;;11.45;6.75;;;;;;;8.63;89.22;99944.93;1641357;85;21318;-84
2023/04/06 15:53:04;;;;;;;9.90;7.47;;;;;;;8.64;89.23;99942.54;1645646;86;21224;-84
2023/04/06 15:56:10;;;;;;;16.35;7.00;;;;;;;8.59;89.30;99951.75;1642771;85;21336;-84
2023/04/06 15:59:17;;;;;;;12.33;6.55;;;;;;;8.59;89.80;99951.75;1640453;86;21251;-85
2023/04/06 16:02:23;;;;;;;13.40;8.43;;;;;;;8.64;89.72;99952.92;1661549;83;21362;-84
2023/04/06 16:05:30;;;;;;;18.40;8.98;;;;;;;8.54;89.90;99950.05;1712453;83;21290;-84